Date,TemperatureHighF,TemperatureAvgF,TemperatureLowF,DewpointHighF,DewpointAvgF,DewpointLowF,HumidityHigh,HumidityAvg,HumidityLow,PressureMaxIn,PressureMinIn,WindSpeedMaxMPH,WindSpeedAvgMPH,GustSpeedMaxMPH,PrecipitationSumIn
2014-1-1,30.3,23.1,13.4,15.1,9.1,-1.0,67,55,41,30.44,30.28,6,1,8,0.00
2014-1-2,26.6,19.4,8.9,16.3,11.0,0.8,75,70,61,30.28,29.75,4,1,9,0.00
2014-1-3,14.7,8.4,1.0,1.8,-6.6,-16.0,70,50,29,30.50,29.71,10,2,20,0.00
2014-1-4,25.3,11.0,-2.0,3.5,-6.2,-16.0,67,46,24,30.56,30.33,4,0,7,0.00
2014-1-5,33.2,20.3,6.2,31.7,14.4,0.0,95,78,56,30.35,29.77,2,0,4,0.11
2014-1-6,54.5,37.8,12.5,53.6,29.4,-10.0,99,74,33,29.77,29.37,15,3,26,0.48
2014-1-7,12.5,3.9,-1.0,-11.0,-22.3,-29.0,34,27,22,30.40,29.76,12,5,21,0.00
2014-1-8,19.7,11.0,3.0,-2.0,-9.6,-18.0,46,38,26,30.57,30.40,5,1,12,0.00
2014-1-9,30.5,18.7,11.8,8.0,4.3,-2.0,71,54,34,30.67,30.51,5,0,8,0.00
2014-1-10,31.8,26.8,18.5,30.1,20.6,7.6,95,77,62,30.62,30.24,2,0,4,0.00
2014-1-11,59.3,45.2,31.4,58.7,44.1,30.1,99,96,82,30.24,29.32,5,0,11,0.07
2014-1-12,50.3,40.7,33.6,45.0,28.0,22.7,83,61,50,30.08,29.40,13,3,23,0.01
2014-1-13,47.4,36.8,25.3,36.8,28.9,21.0,90,74,55,30.17,29.90,2,0,4,0.00
2014-1-14,42.8,40.5,35.2,42.3,38.4,30.0,99,93,75,29.91,29.69,2,0,4,0.22
2014-1-15,44.9,35.5,26.7,38.6,33.3,24.5,98,92,77,30.03,29.87,0,0,0,0.00
2014-1-16,38.8,34.5,28.5,36.6,28.7,24.9,95,80,68,29.97,29.87,8,0,10,0.00
2014-1-17,41.9,30.4,21.7,28.7,23.4,18.7,91,76,54,30.01,29.90,2,0,6,0.00
2014-1-18,35.6,29.9,24.0,30.1,22.3,12.3,93,74,53,29.90,29.69,9,2,17,0.04
2014-1-19,33.2,26.8,21.0,20.3,14.2,9.4,65,58,52,29.88,29.66,9,2,17,0.00
2014-1-20,39.9,34.0,25.1,27.3,20.3,7.3,72,57,46,29.94,29.59,11,1,15,0.01
2014-1-21,25.1,15.0,7.5,9.6,2.5,-12.0,73,58,37,30.04,29.88,5,0,11,0.00
2014-1-22,14.3,6.8,0.0,-11.0,-15.3,-20.0,47,35,24,30.03,29.83,5,0,11,0.00
2014-1-23,19.5,8.4,0.0,-1.0,-9.4,-17.0,57,43,27,30.32,30.02,4,0,13,0.00
2014-1-24,20.6,10.7,5.0,-5.0,-10.7,-15.0,50,37,22,30.40,30.09,4,0,14,0.00
2014-1-25,22.4,16.8,11.3,15.1,5.1,-5.0,78,60,43,30.09,29.46,0,0,1,0.00
2014-1-26,20.3,16.5,8.7,13.6,-3.0,-15.0,75,43,24,29.91,29.47,8,1,17,0.00
2014-1-27,42.6,23.5,15.6,28.0,4.9,-14.0,73,48,22,30.11,29.62,10,0,17,0.04
2014-1-28,15.9,11.7,5.9,-11.0,-15.6,-22.0,39,27,21,30.39,30.11,2,0,7,0.00
2014-1-29,23.3,13.9,6.8,0.3,-9.8,-16.0,64,35,21,30.31,30.09,2,0,11,0.00
2014-1-30,32.0,16.4,3.5,2.0,-6.8,-16.0,54,35,22,30.48,30.21,0,0,2,0.00
2014-1-31,38.8,28.4,16.5,14.7,7.2,-1.0,54,41,26,30.26,30.10,1,0,6,0.01